sensor_id;sensor_type;location;lat;lon;timestamp;temperature;humidity
20750;DHT22;10535;50.664;4.564;2023-01-24T00:00:49;2.30;99.90
20750;DHT22;10535;50.664;4.564;2023-01-24T00:03:15;2.20;99.90
20750;DHT22;10535;50.664;4.564;2023-01-24T00:05:43;2.20;99.90
20750;DHT22;10535;50.664;4.564;2023-01-24T00:08:11;2.20;99.90
20750;DHT22;10535;50.664;4.564;2023-01-24T00:10:37;2.30;99.90
20750;DHT22;10535;50.664;4.564;2023-01-24T00:13:03;2.20;99.90
20750;DHT22;10535;50.664;4.564;2023-01-24T00:15:29;2.40;99.90
20750;DHT22;10535;50.664;4.564;2023-01-24T00:17:55;2.40;99.90
20750;DHT22;10535;50.664;4.564;2023-01-24T00:20:21;2.30;99.90
20750;DHT22;10535;50.664;4.564;2023-01-24T00:22:46;2.20;99.90
20750;DHT22;10535;50.664;4.564;2023-01-24T00:25:12;2.20;99.90
20750;DHT22;10535;50.664;4.564;2023-01-24T00:27:38;2.20;99.90
20750;DHT22;10535;50.664;4.564;2023-01-24T00:30:04;2.30;99.90
20750;DHT22;10535;50.664;4.564;2023-01-24T00:32:31;2.30;99.90
20750;DHT22;10535;50.664;4.564;2023-01-24T00:34:57;2.20;99.90
20750;DHT22;10535;50.664;4.564;2023-01-24T00:37:22;2.20;99.90
20750;DHT22;10535;50.664;4.564;2023-01-24T00:39:50;2.20;99.90
20750;DHT22;10535;50.664;4.564;2023-01-24T00:42:15;2.10;99.90
20750;DHT22;10535;50.664;4.564;2023-01-24T00:44:41;2.10;99.90
20750;DHT22;10535;50.664;4.564;2023-01-24T00:47:06;2.10;99.90
20750;DHT22;10535;50.664;4.564;2023-01-24T00:49:32;2.10;99.90
20750;DHT22;10535;50.664;4.564;2023-01-24T00:52:01;2.10;99.90
20750;DHT22;10535;50.664;4.564;2023-01-24T00:54:26;2.10;99.90
20750;DHT22;10535;50.664;4.564;2023-01-24T00:56:52;2.10;99.90
20750;DHT22;10535;50.664;4.564;2023-01-24T00:59:20;2.20;99.90
20750;DHT22;10535;50.664;4.564;2023-01-24T01:01:46;2.10;99.90
20750;DHT22;10535;50.664;4.564;2023-01-24T01:04:11;2.10;99.90
20750;DHT22;10535;50.664;4.564;2023-01-24T01:06:37;2.10;99.90
20750;DHT22;10535;50.664;4.564;2023-01-24T01:09:03;2.10;99.90
20750;DHT22;10535;50.664;4.564;2023-01-24T01:11:29;2.20;99.90
20750;DHT22;10535;50.664;4.564;2023-01-24T01:13:57;2.10;99.90
20750;DHT22;10535;50.664;4.564;2023-01-24T01:16:24;2.30;99.90
20750;DHT22;10535;50.664;4.564;2023-01-24T01:18:53;2.20;99.90
20750;DHT22;10535;50.664;4.564;2023-01-24T01:21:21;2.30;99.90
20750;DHT22;10535;50.664;4.564;2023-01-24T01:23:48;2.20;99.90
20750;DHT22;10535;50.664;4.564;2023-01-24T01:26:17;2.20;99.90
20750;DHT22;10535;50.664;4.564;2023-01-24T01:28:43;2.20;99.90
20750;DHT22;10535;50.664;4.564;2023-01-24T01:31:08;2.30;99.90
20750;DHT22;10535;50.664;4.564;2023-01-24T01:33:34;2.30;99.90
20750;DHT22;10535;50.664;4.564;2023-01-24T01:36:00;2.30;99.90
20750;DHT22;10535;50.664;4.564;2023-01-24T01:38:25;2.30;99.90
20750;DHT22;10535;50.664;4.564;2023-01-24T01:40:53;2.30;99.90
20750;DHT22;10535;50.664;4.564;2023-01-24T01:43:21;2.20;99.90
20750;DHT22;10535;50.664;4.564;2023-01-24T01:45:53;2.40;99.90
20750;DHT22;10535;50.664;4.564;2023-01-24T01:48:38;2.50;99.90
20750;DHT22;10535;50.664;4.564;2023-01-24T01:53:41;2.60;99.90
20750;DHT22;10535;50.664;4.564;2023-01-24T01:56:21;2.40;99.90
20750;DHT22;10535;50.664;4.564;2023-01-24T01:58:47;2.30;99.90
20750;DHT22;10535;50.664;4.564;2023-01-24T02:01:13;2.30;99.90
20750;DHT22;10535;50.664;4.564;2023-01-24T02:03:43;2.30;99.90
20750;DHT22;10535;50.664;4.564;2023-01-24T02:06:50;2.20;99.90
20750;DHT22;10535;50.664;4.564;2023-01-24T02:09:21;2.20;99.90
20750;DHT22;10535;50.664;4.564;2023-01-24T02:11:49;2.20;99.90
20750;DHT22;10535;50.664;4.564;2023-01-24T02:14:17;2.30;99.90
20750;DHT22;10535;50.664;4.564;2023-01-24T02:17:03;2.30;99.90
20750;DHT22;10535;50.664;4.564;2023-01-24T02:22:46;2.40;99.90
20750;DHT22;10535;50.664;4.564;2023-01-24T02:25:21;2.40;99.90
20750;DHT22;10535;50.664;4.564;2023-01-24T02:27:47;2.40;99.90
20750;DHT22;10535;50.664;4.564;2023-01-24T02:30:13;2.50;99.90
20750;DHT22;10535;50.664;4.564;2023-01-24T02:32:39;2.50;99.90
20750;DHT22;10535;50.664;4.564;2023-01-24T02:35:05;2.70;99.90
20750;DHT22;10535;50.664;4.564;2023-01-24T02:37:32;2.60;99.90
20750;DHT22;10535;50.664;4.564;2023-01-24T02:40:03;2.60;99.90
20750;DHT22;10535;50.664;4.564;2023-01-24T02:42:34;2.40;99.90
20750;DHT22;10535;50.664;4.564;2023-01-24T02:45:19;2.40;99.90
20750;DHT22;10535;50.664;4.564;2023-01-24T02:47:48;2.40;99.90
20750;DHT22;10535;50.664;4.564;2023-01-24T02:50:16;2.60;99.90
20750;DHT22;10535;50.664;4.564;2023-01-24T02:52:41;2.50;99.90
20750;DHT22;10535;50.664;4.564;2023-01-24T02:55:26;2.50;99.90
20750;DHT22;10535;50.664;4.564;2023-01-24T02:57:51;2.30;99.90
20750;DHT22;10535;50.664;4.564;2023-01-24T03:00:41;2.50;99.90
20750;DHT22;10535;50.664;4.564;2023-01-24T03:03:08;2.60;99.90
20750;DHT22;10535;50.664;4.564;2023-01-24T03:05:34;2.50;99.90
20750;DHT22;10535;50.664;4.564;2023-01-24T03:08:25;2.40;99.90
20750;DHT22;10535;50.664;4.564;2023-01-24T03:10:51;2.50;99.90
20750;DHT22;10535;50.664;4.564;2023-01-24T03:13:16;2.50;99.90
20750;DHT22;10535;50.664;4.564;2023-01-24T03:16:04;2.50;99.90
20750;DHT22;10535;50.664;4.564;2023-01-24T03:18:49;2.50;99.90
20750;DHT22;10535;50.664;4.564;2023-01-24T03:21:33;2.60;99.90
20750;DHT22;10535;50.664;4.564;2023-01-24T03:24:17;2.60;99.90
20750;DHT22;10535;50.664;4.564;2023-01-24T03:27:03;2.30;99.90
20750;DHT22;10535;50.664;4.564;2023-01-24T03:29:47;2.40;99.90
20750;DHT22;10535;50.664;4.564;2023-01-24T03:32:31;2.40;99.90
20750;DHT22;10535;50.664;4.564;2023-01-24T03:35:15;2.40;99.90
20750;DHT22;10535;50.664;4.564;2023-01-24T03:37:41;2.40;99.90
20750;DHT22;10535;50.664;4.564;2023-01-24T03:40:25;2.40;99.90
20750;DHT22;10535;50.664;4.564;2023-01-24T03:42:50;2.40;99.90
20750;DHT22;10535;50.664;4.564;2023-01-24T03:45:18;2.40;99.90
20750;DHT22;10535;50.664;4.564;2023-01-24T03:47:50;2.50;99.90
20750;DHT22;10535;50.664;4.564;2023-01-24T03:50:30;2.60;99.90
20750;DHT22;10535;50.664;4.564;2023-01-24T03:53:16;2.70;99.90
20750;DHT22;10535;50.664;4.564;2023-01-24T03:55:42;2.60;99.90
20750;DHT22;10535;50.664;4.564;2023-01-24T03:58:08;2.40;99.90
20750;DHT22;10535;50.664;4.564;2023-01-24T04:00:35;2.40;99.90
20750;DHT22;10535;50.664;4.564;2023-01-24T04:03:01;2.40;99.90
20750;DHT22;10535;50.664;4.564;2023-01-24T04:05:27;2.30;99.90
20750;DHT22;10535;50.664;4.564;2023-01-24T04:07:53;2.30;99.90
20750;DHT22;10535;50.664;4.564;2023-01-24T04:10:20;2.20;99.90
20750;DHT22;10535;50.664;4.564;2023-01-24T04:12:46;2.40;99.90
20750;DHT22;10535;50.664;4.564;2023-01-24T04:15:21;2.50;99.90
20750;DHT22;10535;50.664;4.564;2023-01-24T04:17:47;2.50;99.90
20750;DHT22;10535;50.664;4.564;2023-01-24T04:20:13;2.50;99.90
20750;DHT22;10535;50.664;4.564;2023-01-24T04:22:39;2.60;99.90
20750;DHT22;10535;50.664;4.564;2023-01-24T04:25:05;2.60;99.90
20750;DHT22;10535;50.664;4.564;2023-01-24T04:27:31;2.60;99.90
20750;DHT22;10535;50.664;4.564;2023-01-24T04:29:56;2.70;99.90
20750;DHT22;10535;50.664;4.564;2023-01-24T04:32:22;2.60;99.90
20750;DHT22;10535;50.664;4.564;2023-01-24T04:34:47;2.60;99.90
20750;DHT22;10535;50.664;4.564;2023-01-24T04:37:13;2.80;99.90
20750;DHT22;10535;50.664;4.564;2023-01-24T04:39:39;2.70;99.90
20750;DHT22;10535;50.664;4.564;2023-01-24T04:42:04;2.70;99.90
20750;DHT22;10535;50.664;4.564;2023-01-24T04:44:31;2.70;99.90
20750;DHT22;10535;50.664;4.564;2023-01-24T04:46:57;2.70;99.90
20750;DHT22;10535;50.664;4.564;2023-01-24T04:49:23;2.70;99.90
20750;DHT22;10535;50.664;4.564;2023-01-24T04:51:49;2.70;99.90
20750;DHT22;10535;50.664;4.564;2023-01-24T04:54:15;2.70;99.90
20750;DHT22;10535;50.664;4.564;2023-01-24T04:56:41;2.60;99.90
20750;DHT22;10535;50.664;4.564;2023-01-24T04:59:10;2.60;99.90
20750;DHT22;10535;50.664;4.564;2023-01-24T05:01:36;2.70;99.90
20750;DHT22;10535;50.664;4.564;2023-01-24T05:04:03;2.50;99.90
20750;DHT22;10535;50.664;4.564;2023-01-24T05:06:30;2.50;99.90
20750;DHT22;10535;50.664;4.564;2023-01-24T05:08:56;2.50;99.90
20750;DHT22;10535;50.664;4.564;2023-01-24T05:11:23;2.40;99.90
20750;DHT22;10535;50.664;4.564;2023-01-24T05:13:49;2.50;99.90
20750;DHT22;10535;50.664;4.564;2023-01-24T05:16:15;2.60;99.90
20750;DHT22;10535;50.664;4.564;2023-01-24T05:18:41;2.50;99.90
20750;DHT22;10535;50.664;4.564;2023-01-24T05:21:11;2.60;99.90
20750;DHT22;10535;50.664;4.564;2023-01-24T05:23:36;3.00;99.90
20750;DHT22;10535;50.664;4.564;2023-01-24T05:26:03;2.80;99.90
20750;DHT22;10535;50.664;4.564;2023-01-24T05:28:29;2.80;99.90
20750;DHT22;10535;50.664;4.564;2023-01-24T05:31:02;2.70;99.90
20750;DHT22;10535;50.664;4.564;2023-01-24T05:33:28;2.80;99.90
20750;DHT22;10535;50.664;4.564;2023-01-24T05:36:17;2.60;99.90
20750;DHT22;10535;50.664;4.564;2023-01-24T05:38:44;2.60;99.90
20750;DHT22;10535;50.664;4.564;2023-01-24T05:41:12;2.50;99.90
20750;DHT22;10535;50.664;4.564;2023-01-24T05:43:38;2.40;99.90
20750;DHT22;10535;50.664;4.564;2023-01-24T05:46:08;2.50;99.90
20750;DHT22;10535;50.664;4.564;2023-01-24T05:48:35;2.40;99.90
20750;DHT22;10535;50.664;4.564;2023-01-24T05:51:04;2.30;99.90
20750;DHT22;10535;50.664;4.564;2023-01-24T05:53:31;2.40;99.90
20750;DHT22;10535;50.664;4.564;2023-01-24T05:55:59;2.40;99.90
20750;DHT22;10535;50.664;4.564;2023-01-24T05:58:25;2.50;99.90
20750;DHT22;10535;50.664;4.564;2023-01-24T06:00:52;2.40;99.90
20750;DHT22;10535;50.664;4.564;2023-01-24T06:03:18;2.30;99.90
20750;DHT22;10535;50.664;4.564;2023-01-24T06:05:47;2.40;99.90
20750;DHT22;10535;50.664;4.564;2023-01-24T06:08:14;2.50;99.90
20750;DHT22;10535;50.664;4.564;2023-01-24T06:10:39;2.40;99.90
20750;DHT22;10535;50.664;4.564;2023-01-24T06:13:05;2.40;99.90
20750;DHT22;10535;50.664;4.564;2023-01-24T06:15:30;2.30;99.90
20750;DHT22;10535;50.664;4.564;2023-01-24T06:17:56;2.20;99.90
20750;DHT22;10535;50.664;4.564;2023-01-24T06:20:22;2.20;99.90
20750;DHT22;10535;50.664;4.564;2023-01-24T06:23:03;2.30;99.90
20750;DHT22;10535;50.664;4.564;2023-01-24T06:25:29;2.20;99.90
20750;DHT22;10535;50.664;4.564;2023-01-24T06:27:55;2.20;99.90
20750;DHT22;10535;50.664;4.564;2023-01-24T06:30:21;2.10;99.90
20750;DHT22;10535;50.664;4.564;2023-01-24T06:38:26;2.20;99.90
20750;DHT22;10535;50.664;4.564;2023-01-24T06:41:00;2.10;99.90
20750;DHT22;10535;50.664;4.564;2023-01-24T06:43:27;2.10;99.90
20750;DHT22;10535;50.664;4.564;2023-01-24T06:45:53;2.10;99.90
20750;DHT22;10535;50.664;4.564;2023-01-24T06:48:19;2.30;99.90
20750;DHT22;10535;50.664;4.564;2023-01-24T06:50:47;2.10;99.90
20750;DHT22;10535;50.664;4.564;2023-01-24T06:53:12;2.30;99.90
20750;DHT22;10535;50.664;4.564;2023-01-24T06:55:43;2.10;99.90
20750;DHT22;10535;50.664;4.564;2023-01-24T06:58:09;2.20;99.90
20750;DHT22;10535;50.664;4.564;2023-01-24T07:00:35;2.10;99.90
20750;DHT22;10535;50.664;4.564;2023-01-24T07:03:05;2.30;99.90
20750;DHT22;10535;50.664;4.564;2023-01-24T07:05:32;2.30;99.90
20750;DHT22;10535;50.664;4.564;2023-01-24T07:07:59;2.30;99.90
20750;DHT22;10535;50.664;4.564;2023-01-24T07:10:24;2.20;99.90
20750;DHT22;10535;50.664;4.564;2023-01-24T07:12:50;2.20;99.90
20750;DHT22;10535;50.664;4.564;2023-01-24T07:15:16;2.30;99.90
20750;DHT22;10535;50.664;4.564;2023-01-24T07:17:42;2.40;99.90
20750;DHT22;10535;50.664;4.564;2023-01-24T07:20:11;2.20;99.90
20750;DHT22;10535;50.664;4.564;2023-01-24T07:22:38;2.30;99.90
20750;DHT22;10535;50.664;4.564;2023-01-24T07:25:05;2.20;99.90
20750;DHT22;10535;50.664;4.564;2023-01-24T07:27:31;2.20;99.90
20750;DHT22;10535;50.664;4.564;2023-01-24T07:29:57;2.10;99.90
20750;DHT22;10535;50.664;4.564;2023-01-24T07:32:22;2.20;99.90
20750;DHT22;10535;50.664;4.564;2023-01-24T07:34:48;2.10;99.90
20750;DHT22;10535;50.664;4.564;2023-01-24T07:37:14;2.20;99.90
20750;DHT22;10535;50.664;4.564;2023-01-24T07:39:39;2.30;99.90
20750;DHT22;10535;50.664;4.564;2023-01-24T07:42:05;2.40;99.90
20750;DHT22;10535;50.664;4.564;2023-01-24T07:44:31;2.50;99.90
20750;DHT22;10535;50.664;4.564;2023-01-24T07:46:56;2.70;99.90
20750;DHT22;10535;50.664;4.564;2023-01-24T07:49:22;2.90;99.90
20750;DHT22;10535;50.664;4.564;2023-01-24T07:51:47;2.80;99.90
20750;DHT22;10535;50.664;4.564;2023-01-24T07:54:14;2.80;99.90
20750;DHT22;10535;50.664;4.564;2023-01-24T07:56:39;2.60;99.90
20750;DHT22;10535;50.664;4.564;2023-01-24T07:59:05;2.60;99.90
20750;DHT22;10535;50.664;4.564;2023-01-24T08:01:31;2.50;99.90
20750;DHT22;10535;50.664;4.564;2023-01-24T08:03:57;2.40;99.90
20750;DHT22;10535;50.664;4.564;2023-01-24T08:06:24;2.30;99.90
20750;DHT22;10535;50.664;4.564;2023-01-24T08:08:50;2.40;99.90
20750;DHT22;10535;50.664;4.564;2023-01-24T08:11:15;2.50;99.90
20750;DHT22;10535;50.664;4.564;2023-01-24T08:13:43;2.60;99.90
20750;DHT22;10535;50.664;4.564;2023-01-24T08:16:09;2.60;99.90
20750;DHT22;10535;50.664;4.564;2023-01-24T08:18:37;2.90;99.90
20750;DHT22;10535;50.664;4.564;2023-01-24T08:21:02;2.90;99.90
20750;DHT22;10535;50.664;4.564;2023-01-24T08:23:29;2.20;99.90
20750;DHT22;10535;50.664;4.564;2023-01-24T08:25:57;2.10;99.90
20750;DHT22;10535;50.664;4.564;2023-01-24T08:28:23;2.10;99.90
20750;DHT22;10535;50.664;4.564;2023-01-24T08:30:49;2.10;99.90
20750;DHT22;10535;50.664;4.564;2023-01-24T08:33:14;2.10;99.90
20750;DHT22;10535;50.664;4.564;2023-01-24T08:35:44;2.30;99.90
20750;DHT22;10535;50.664;4.564;2023-01-24T08:38:11;2.50;99.90
20750;DHT22;10535;50.664;4.564;2023-01-24T08:40:37;2.50;99.90
20750;DHT22;10535;50.664;4.564;2023-01-24T08:43:03;2.30;99.90
20750;DHT22;10535;50.664;4.564;2023-01-24T08:45:29;2.10;99.90
20750;DHT22;10535;50.664;4.564;2023-01-24T08:47:55;1.90;99.90
20750;DHT22;10535;50.664;4.564;2023-01-24T08:50:21;1.90;99.90
20750;DHT22;10535;50.664;4.564;2023-01-24T08:52:47;2.10;99.90
20750;DHT22;10535;50.664;4.564;2023-01-24T08:55:14;2.00;99.90
20750;DHT22;10535;50.664;4.564;2023-01-24T08:57:39;2.10;99.90
20750;DHT22;10535;50.664;4.564;2023-01-24T09:00:06;2.30;99.90
20750;DHT22;10535;50.664;4.564;2023-01-24T09:02:31;2.30;99.90
20750;DHT22;10535;50.664;4.564;2023-01-24T09:05:06;2.20;99.90
20750;DHT22;10535;50.664;4.564;2023-01-24T09:07:33;2.30;99.90
20750;DHT22;10535;50.664;4.564;2023-01-24T09:10:02;2.60;99.90
20750;DHT22;10535;50.664;4.564;2023-01-24T09:12:27;2.80;99.90
20750;DHT22;10535;50.664;4.564;2023-01-24T09:14:53;2.70;99.90
20750;DHT22;10535;50.664;4.564;2023-01-24T09:17:18;2.40;99.90
20750;DHT22;10535;50.664;4.564;2023-01-24T09:19:44;2.70;99.90
20750;DHT22;10535;50.664;4.564;2023-01-24T09:22:09;2.70;99.90
20750;DHT22;10535;50.664;4.564;2023-01-24T09:24:35;2.90;99.90
20750;DHT22;10535;50.664;4.564;2023-01-24T09:27:01;2.80;99.90
20750;DHT22;10535;50.664;4.564;2023-01-24T09:29:26;2.60;99.90
20750;DHT22;10535;50.664;4.564;2023-01-24T09:31:52;2.90;99.90
20750;DHT22;10535;50.664;4.564;2023-01-24T09:34:20;2.80;99.90
20750;DHT22;10535;50.664;4.564;2023-01-24T09:36:47;2.90;99.90
20750;DHT22;10535;50.664;4.564;2023-01-24T09:39:13;2.70;99.90
20750;DHT22;10535;50.664;4.564;2023-01-24T09:42:05;2.70;99.90
20750;DHT22;10535;50.664;4.564;2023-01-24T09:44:46;2.90;99.90
20750;DHT22;10535;50.664;4.564;2023-01-24T09:47:19;2.70;99.90
20750;DHT22;10535;50.664;4.564;2023-01-24T09:52:42;2.80;99.90
20750;DHT22;10535;50.664;4.564;2023-01-24T10:00:38;2.40;99.90
20750;DHT22;10535;50.664;4.564;2023-01-24T10:03:14;2.50;99.90
20750;DHT22;10535;50.664;4.564;2023-01-24T10:05:43;2.50;99.90
20750;DHT22;10535;50.664;4.564;2023-01-24T10:08:31;2.60;99.90
20750;DHT22;10535;50.664;4.564;2023-01-24T10:11:37;2.80;99.90
20750;DHT22;10535;50.664;4.564;2023-01-24T10:20:28;2.60;99.90
20750;DHT22;10535;50.664;4.564;2023-01-24T10:23:15;2.90;99.90
20750;DHT22;10535;50.664;4.564;2023-01-24T10:25:57;2.40;99.90
20750;DHT22;10535;50.664;4.564;2023-01-24T10:28:30;2.40;99.90
20750;DHT22;10535;50.664;4.564;2023-01-24T10:33:47;2.30;99.90
20750;DHT22;10535;50.664;4.564;2023-01-24T10:36:22;2.30;99.90
20750;DHT22;10535;50.664;4.564;2023-01-24T10:38:51;2.30;99.90
20750;DHT22;10535;50.664;4.564;2023-01-24T10:41:23;2.30;99.90
20750;DHT22;10535;50.664;4.564;2023-01-24T10:43:53;2.30;99.90
20750;DHT22;10535;50.664;4.564;2023-01-24T10:46:42;2.40;99.90
20750;DHT22;10535;50.664;4.564;2023-01-24T10:49:23;2.40;99.90
20750;DHT22;10535;50.664;4.564;2023-01-24T10:54:43;2.90;99.90
20750;DHT22;10535;50.664;4.564;2023-01-24T10:57:42;3.00;99.90
20750;DHT22;10535;50.664;4.564;2023-01-24T11:00:19;2.90;99.90
20750;DHT22;10535;50.664;4.564;2023-01-24T11:02:58;2.70;99.90
20750;DHT22;10535;50.664;4.564;2023-01-24T11:05:25;2.70;99.90
20750;DHT22;10535;50.664;4.564;2023-01-24T11:08:00;2.80;99.90
20750;DHT22;10535;50.664;4.564;2023-01-24T11:10:30;2.70;99.90
20750;DHT22;10535;50.664;4.564;2023-01-24T11:13:01;2.50;99.90
20750;DHT22;10535;50.664;4.564;2023-01-24T11:15:34;2.40;99.90
20750;DHT22;10535;50.664;4.564;2023-01-24T11:18:24;2.30;99.90
20750;DHT22;10535;50.664;4.564;2023-01-24T11:21:14;2.30;99.90
20750;DHT22;10535;50.664;4.564;2023-01-24T11:23:40;2.60;99.90
20750;DHT22;10535;50.664;4.564;2023-01-24T11:26:19;2.90;99.90
20750;DHT22;10535;50.664;4.564;2023-01-24T11:28:45;2.90;99.90
20750;DHT22;10535;50.664;4.564;2023-01-24T11:31:38;2.50;99.90
20750;DHT22;10535;50.664;4.564;2023-01-24T11:37:01;2.60;99.90
20750;DHT22;10535;50.664;4.564;2023-01-24T11:39:39;2.70;99.90
20750;DHT22;10535;50.664;4.564;2023-01-24T11:45:07;2.70;99.90
20750;DHT22;10535;50.664;4.564;2023-01-24T11:53:07;2.70;99.90
20750;DHT22;10535;50.664;4.564;2023-01-24T11:55:42;2.70;99.90
20750;DHT22;10535;50.664;4.564;2023-01-24T11:58:34;2.50;99.90
20750;DHT22;10535;50.664;4.564;2023-01-24T12:09:31;2.90;99.90
20750;DHT22;10535;50.664;4.564;2023-01-24T12:12:20;3.20;99.90
20750;DHT22;10535;50.664;4.564;2023-01-24T12:15:05;3.10;99.90
20750;DHT22;10535;50.664;4.564;2023-01-24T12:17:45;3.30;99.90
20750;DHT22;10535;50.664;4.564;2023-01-24T12:22:50;3.30;99.90
20750;DHT22;10535;50.664;4.564;2023-01-24T12:25:27;3.30;99.90
20750;DHT22;10535;50.664;4.564;2023-01-24T12:27:57;3.20;99.90
20750;DHT22;10535;50.664;4.564;2023-01-24T12:30:43;3.20;99.90
20750;DHT22;10535;50.664;4.564;2023-01-24T12:33:27;3.20;99.90
20750;DHT22;10535;50.664;4.564;2023-01-24T12:36:00;2.90;99.90
20750;DHT22;10535;50.664;4.564;2023-01-24T12:38:54;2.70;99.90
20750;DHT22;10535;50.664;4.564;2023-01-24T12:41:35;2.60;99.90
20750;DHT22;10535;50.664;4.564;2023-01-24T12:44:25;2.60;99.90
20750;DHT22;10535;50.664;4.564;2023-01-24T12:55:17;2.50;99.90
20750;DHT22;10535;50.664;4.564;2023-01-24T12:58:08;2.40;99.90
20750;DHT22;10535;50.664;4.564;2023-01-24T13:11:44;2.60;99.90
20750;DHT22;10535;50.664;4.564;2023-01-24T13:19:54;2.50;99.90
20750;DHT22;10535;50.664;4.564;2023-01-24T13:28:24;2.50;99.90
20750;DHT22;10535;50.664;4.564;2023-01-24T13:31:22;2.50;99.90
20750;DHT22;10535;50.664;4.564;2023-01-24T13:34:00;2.80;99.90
20750;DHT22;10535;50.664;4.564;2023-01-24T13:36:36;2.60;99.90
20750;DHT22;10535;50.664;4.564;2023-01-24T13:39:04;2.60;99.90
20750;DHT22;10535;50.664;4.564;2023-01-24T13:49:33;3.20;99.90
20750;DHT22;10535;50.664;4.564;2023-01-24T13:52:00;3.10;99.90
20750;DHT22;10535;50.664;4.564;2023-01-24T13:54:41;3.30;99.90
20750;DHT22;10535;50.664;4.564;2023-01-24T13:57:21;3.20;99.90
20750;DHT22;10535;50.664;4.564;2023-01-24T14:10:43;3.10;99.90
20750;DHT22;10535;50.664;4.564;2023-01-24T14:22:01;2.80;99.90
20750;DHT22;10535;50.664;4.564;2023-01-24T14:27:25;2.60;99.90
20750;DHT22;10535;50.664;4.564;2023-01-24T14:32:43;2.80;99.90
20750;DHT22;10535;50.664;4.564;2023-01-24T14:35:23;3.00;99.90
20750;DHT22;10535;50.664;4.564;2023-01-24T14:37:51;2.90;99.90
20750;DHT22;10535;50.664;4.564;2023-01-24T14:40:27;3.00;99.90
20750;DHT22;10535;50.664;4.564;2023-01-24T14:43:02;2.80;99.90
20750;DHT22;10535;50.664;4.564;2023-01-24T14:45:30;3.00;99.90
20750;DHT22;10535;50.664;4.564;2023-01-24T14:47:57;2.80;99.90
20750;DHT22;10535;50.664;4.564;2023-01-24T14:50:31;2.70;99.90
20750;DHT22;10535;50.664;4.564;2023-01-24T14:52:59;2.70;99.90
20750;DHT22;10535;50.664;4.564;2023-01-24T14:55:37;2.90;99.90
20750;DHT22;10535;50.664;4.564;2023-01-24T14:58:25;2.50;99.90
20750;DHT22;10535;50.664;4.564;2023-01-24T15:00:54;2.40;99.90
20750;DHT22;10535;50.664;4.564;2023-01-24T15:03:22;2.40;99.90
20750;DHT22;10535;50.664;4.564;2023-01-24T15:05:54;2.40;99.90
20750;DHT22;10535;50.664;4.564;2023-01-24T15:08:21;2.20;99.90
20750;DHT22;10535;50.664;4.564;2023-01-24T15:11:17;2.40;99.90
20750;DHT22;10535;50.664;4.564;2023-01-24T15:13:46;2.30;99.90
20750;DHT22;10535;50.664;4.564;2023-01-24T15:16:23;2.60;99.90
20750;DHT22;10535;50.664;4.564;2023-01-24T15:18:50;2.60;99.90
20750;DHT22;10535;50.664;4.564;2023-01-24T15:21:22;2.60;99.90
20750;DHT22;10535;50.664;4.564;2023-01-24T15:23:50;2.70;99.90
20750;DHT22;10535;50.664;4.564;2023-01-24T15:28:56;2.40;99.90
20750;DHT22;10535;50.664;4.564;2023-01-24T15:31:27;2.70;99.90
20750;DHT22;10535;50.664;4.564;2023-01-24T15:33:55;2.60;99.90
20750;DHT22;10535;50.664;4.564;2023-01-24T15:36:32;2.80;99.90
20750;DHT22;10535;50.664;4.564;2023-01-24T15:39:00;2.80;99.90
20750;DHT22;10535;50.664;4.564;2023-01-24T15:41:36;2.70;99.90
20750;DHT22;10535;50.664;4.564;2023-01-24T15:44:21;2.50;99.90
20750;DHT22;10535;50.664;4.564;2023-01-24T15:46:57;2.50;99.90
20750;DHT22;10535;50.664;4.564;2023-01-24T15:49:59;2.40;99.90
20750;DHT22;10535;50.664;4.564;2023-01-24T15:52:46;2.50;99.90
20750;DHT22;10535;50.664;4.564;2023-01-24T15:55:32;2.40;99.90
20750;DHT22;10535;50.664;4.564;2023-01-24T15:57:57;2.50;99.90
20750;DHT22;10535;50.664;4.564;2023-01-24T16:00:24;2.20;99.90
20750;DHT22;10535;50.664;4.564;2023-01-24T16:02:49;2.30;99.90
20750;DHT22;10535;50.664;4.564;2023-01-24T16:05:18;2.20;99.90
20750;DHT22;10535;50.664;4.564;2023-01-24T16:07:44;2.30;99.90
20750;DHT22;10535;50.664;4.564;2023-01-24T16:10:14;2.50;99.90
20750;DHT22;10535;50.664;4.564;2023-01-24T16:12:41;2.30;99.90
20750;DHT22;10535;50.664;4.564;2023-01-24T16:15:15;2.30;99.90
20750;DHT22;10535;50.664;4.564;2023-01-24T16:17:41;2.30;99.90
20750;DHT22;10535;50.664;4.564;2023-01-24T16:22:43;2.10;99.90
20750;DHT22;10535;50.664;4.564;2023-01-24T16:25:13;1.90;99.90
20750;DHT22;10535;50.664;4.564;2023-01-24T16:27:39;2.20;99.90
20750;DHT22;10535;50.664;4.564;2023-01-24T16:30:09;2.30;99.90
20750;DHT22;10535;50.664;4.564;2023-01-24T16:32:36;2.10;99.90
20750;DHT22;10535;50.664;4.564;2023-01-24T16:35:01;2.20;99.90
20750;DHT22;10535;50.664;4.564;2023-01-24T16:37:27;2.30;99.90
20750;DHT22;10535;50.664;4.564;2023-01-24T16:39:53;2.30;99.90
20750;DHT22;10535;50.664;4.564;2023-01-24T16:42:20;2.60;99.90
20750;DHT22;10535;50.664;4.564;2023-01-24T16:44:59;2.30;99.90
20750;DHT22;10535;50.664;4.564;2023-01-24T16:47:26;2.20;99.90
20750;DHT22;10535;50.664;4.564;2023-01-24T16:49:53;2.30;99.90
20750;DHT22;10535;50.664;4.564;2023-01-24T16:52:20;2.30;99.90
20750;DHT22;10535;50.664;4.564;2023-01-24T16:54:46;2.30;99.90
20750;DHT22;10535;50.664;4.564;2023-01-24T16:57:11;2.20;99.90
20750;DHT22;10535;50.664;4.564;2023-01-24T16:59:37;2.10;99.90
20750;DHT22;10535;50.664;4.564;2023-01-24T17:02:03;2.10;99.90
20750;DHT22;10535;50.664;4.564;2023-01-24T17:04:28;2.10;99.90
20750;DHT22;10535;50.664;4.564;2023-01-24T17:06:54;2.20;99.90
20750;DHT22;10535;50.664;4.564;2023-01-24T17:09:25;2.20;99.90
20750;DHT22;10535;50.664;4.564;2023-01-24T17:11:52;2.10;99.90
20750;DHT22;10535;50.664;4.564;2023-01-24T17:14:18;2.00;99.90
20750;DHT22;10535;50.664;4.564;2023-01-24T17:16:43;2.00;99.90
20750;DHT22;10535;50.664;4.564;2023-01-24T17:19:09;2.20;99.90
20750;DHT22;10535;50.664;4.564;2023-01-24T17:21:34;2.30;99.90
20750;DHT22;10535;50.664;4.564;2023-01-24T17:24:00;2.50;99.90
20750;DHT22;10535;50.664;4.564;2023-01-24T17:26:25;2.60;99.90
20750;DHT22;10535;50.664;4.564;2023-01-24T17:28:51;2.30;99.90
20750;DHT22;10535;50.664;4.564;2023-01-24T17:31:18;2.10;99.90
20750;DHT22;10535;50.664;4.564;2023-01-24T17:33:44;1.90;99.90
20750;DHT22;10535;50.664;4.564;2023-01-24T17:36:10;1.80;99.90
20750;DHT22;10535;50.664;4.564;2023-01-24T17:38:42;1.80;99.90
20750;DHT22;10535;50.664;4.564;2023-01-24T17:41:17;1.90;99.90
20750;DHT22;10535;50.664;4.564;2023-01-24T17:43:43;1.90;99.90
20750;DHT22;10535;50.664;4.564;2023-01-24T17:46:09;2.00;99.90
20750;DHT22;10535;50.664;4.564;2023-01-24T17:48:35;1.60;99.90
20750;DHT22;10535;50.664;4.564;2023-01-24T17:51:13;1.70;99.90
20750;DHT22;10535;50.664;4.564;2023-01-24T17:53:39;1.70;99.90
20750;DHT22;10535;50.664;4.564;2023-01-24T17:56:07;1.60;99.90
20750;DHT22;10535;50.664;4.564;2023-01-24T17:58:33;1.60;99.90
20750;DHT22;10535;50.664;4.564;2023-01-24T18:00:59;1.80;99.90
20750;DHT22;10535;50.664;4.564;2023-01-24T18:03:25;1.80;99.90
20750;DHT22;10535;50.664;4.564;2023-01-24T18:05:51;1.90;99.90
20750;DHT22;10535;50.664;4.564;2023-01-24T18:08:18;1.80;99.90